This is the latest recevied weather packets stored in our database for station/object TA2LKM-11. If no packets are shown the sender has not sent any weather packets the latest 10 day(s).
| Time | Temp. | Humidity | Pressure | Rain* | Wind** | Luminosity | Snow |
|---|---|---|---|---|---|---|---|
| 1787900466 | 33.33° C | 41% | 1015.8 hPa | - | - | - | - |
| 1787899565 | 37.22° C | 35% | 1015.9 hPa | - | - | - | - |
| 1787898665 | 45.56° C | 25% | 1016.7 hPa | - | - | - | - |
| 1787897764 | 44.44° C | 26% | 1016.9 hPa | - | - | - | - |
| 1787896863 | 42.78° C | 27% | 1016.9 hPa | - | - | - | - |
| 1787895962 | 40° C | 29% | 1016.7 hPa | - | - | - | - |
| 1787895062 | 36.11° C | 33% | 1016.6 hPa | - | - | - | - |
| 1787894161 | 38.33° C | 30% | 1016.7 hPa | - | - | - | - |
| 1787893260 | 36.11° C | 35% | 1016.6 hPa | - | - | - | - |
| 1787892359 | 33.33° C | 39% | 1016.6 hPa | - | - | - | - |
| 1787891459 | 32.22° C | 40% | 1016.4 hPa | - | - | - | - |
| 1787890595 | 28.33° C | 46% | 1016.3 hPa | - | - | - | - |
| 1787889657 | 27.22° C | 49% | 1015.9 hPa | - | - | - | - |
| 1787888773 | 24.44° C | 54% | 1015.7 hPa | - | - | - | - |
| 1787887873 | 25° C | 52% | 1015.5 hPa | - | - | - | - |
| 1787886972 | 24.44° C | 54% | 1015.6 hPa | - | - | - | - |
| 1787886071 | 24.44° C | 56% | 1015.5 hPa | - | - | - | - |
| 1787885170 | 23.89° C | 56% | 1015.6 hPa | - | - | - | - |
| 1787884270 | 24.44° C | 54% | 1015.6 hPa | - | - | - | - |
| 1787883369 | 23.89° C | 57% | 1015.7 hPa | - | - | - | - |
| 1787882468 | 23.89° C | 57% | 1015.8 hPa | - | - | - | - |
| 1787881567 | 24.44° C | 56% | 1015.7 hPa | - | - | - | - |
| 1787880667 | 25° C | 54% | 1015.6 hPa | - | - | - | - |
| 1787879768 | 25.56° C | 50% | 1015.5 hPa | - | - | - | - |
| 1787878865 | 26.11° C | 47% | 1015.5 hPa | - | - | - | - |
* Rain since midnight (hover to see other rain measurements)
** Current wind speed in m/s (hover to see current wind gust speed)